KMUI/MUI METAR and TAF weather

Enter ICAO airport designator
Station Type Date Time Source
KMUI METAR 2020/09/22 06:56 UTC NOAA

KMUI 220656Z AUTO 00000KT 10SM CLR 03/02 A3033 RMK AO2 SLP275 T00290019


Station Type Date Time Source
KMUI Decoded METAR 2020/09/22 06:56 UTC NOAA

Muir Army Air Field / Indiantown, PA, United States (KMUI) 40-26N 076-34W
Sep 22, 2020 - 02:56 AM EDT / 2020.09.22 0656 UTC
Wind: Calm:0
Visibility: 10 mile(s):0
Sky conditions: clear
Temperature: 37.2 F (2.9 C)
Dew Point: 35.4 F (1.9 C)
Relative Humidity: 93%
Pressure (altimeter): 30.33 in. Hg (1027 hPa)
ob: KMUI 220656Z AUTO 00000KT 10SM CLR 03/02 A3033 RMK AO2 SLP275 T00290019
cycle: 7

Station Type Date Time Source
KMUI TAF 2020/09/21 19:06 UTC NOAA

TAF KMUI 211900Z 2119/2301 06009KT 9999 SKC QNH3035INS TX18/2119Z TN03/2209Z LAST NO
AMDS AFT 2204 NEXT 2211

Example: see airport list